Terminal Aerodrome Forecast
Issued by NWS Paducah, KY

Home | Current Version | Previous Version | Text Only | Print | Product List | Glossary On
Versions: 1 2 3 4 5 6 7 8 9 10 11 12 13 14 15 16 17
000
FTUS43 KPAH 181140
TAFPAH
TAF
KPAH 181140Z 1812/1912 VRB04KT P6SM OVC012
     FM181900 VRB03KT P6SM OVC020
     FM182200 VRB03KT P6SM OVC050
     FM190600 10003KT P6SM VCSH OVC015
     FM190900 07004KT 3SM -SHRA BR OVC007=

USA.gov is the U.S. government's official web portal to all federal, state and local government web resources and services.